createdAt,value
2022-10-15T00:00:07.607Z,1002.88
2022-10-15T00:01:07.520Z,1002.88
2022-10-15T00:02:07.440Z,1002.88
2022-10-15T00:03:07.428Z,1002.85
2022-10-15T00:04:07.522Z,1002.89
2022-10-15T00:05:07.418Z,1002.87
2022-10-15T00:06:07.405Z,1002.85
2022-10-15T00:07:07.391Z,1002.85
2022-10-15T00:08:07.379Z,1002.85
2022-10-15T00:09:07.383Z,1002.85
2022-10-15T00:10:07.377Z,1002.81
2022-10-15T00:11:07.353Z,1002.82
2022-10-15T00:12:07.334Z,1002.77
2022-10-15T00:13:07.356Z,1002.76
2022-10-15T00:14:07.331Z,1002.74
2022-10-15T00:15:07.307Z,1002.71
2022-10-15T00:16:07.319Z,1002.69
2022-10-15T00:17:07.292Z,1002.65
2022-10-15T00:18:07.270Z,1002.58
2022-10-15T00:19:07.280Z,1002.62
2022-10-15T00:20:07.253Z,1002.59
2022-10-15T00:21:07.252Z,1002.58
2022-10-15T00:22:07.231Z,1002.58
2022-10-15T00:23:07.214Z,1002.55
2022-10-15T00:24:07.220Z,1002.58
2022-10-15T00:25:07.196Z,1002.57
2022-10-15T00:26:07.182Z,1002.60
2022-10-15T00:27:07.187Z,1002.58
2022-10-15T00:28:07.163Z,1002.58
2022-10-15T00:29:07.295Z,1002.54
2022-10-15T00:30:07.187Z,1002.52
2022-10-15T00:31:07.136Z,1002.52
2022-10-15T00:32:07.135Z,1002.52
2022-10-15T00:33:08.035Z,1002.46
2022-10-15T00:34:07.093Z,1002.49
2022-10-15T00:35:07.152Z,1002.47
2022-10-15T00:36:07.100Z,1002.50
2022-10-15T00:37:07.096Z,1002.45
2022-10-15T00:38:07.055Z,1002.49
2022-10-15T00:39:07.071Z,1002.48
2022-10-15T00:40:07.052Z,1002.47
2022-10-15T00:41:07.019Z,1002.41
2022-10-15T00:42:07.019Z,1002.41
2022-10-15T00:43:07.011Z,1002.46
2022-10-15T00:44:06.995Z,1002.42
2022-10-15T00:45:06.992Z,1002.42
2022-10-15T00:46:06.959Z,1002.45
2022-10-15T00:47:06.966Z,1002.46
2022-10-15T00:48:06.955Z,1002.51
2022-10-15T00:49:06.943Z,1002.51
2022-10-15T00:50:06.933Z,1002.50
2022-10-15T00:51:06.923Z,1002.50
2022-10-15T00:52:06.905Z,1002.48
2022-10-15T00:53:06.906Z,1002.45
2022-10-15T00:54:06.905Z,1002.45
2022-10-15T00:55:06.877Z,1002.41
2022-10-15T00:56:06.856Z,1002.41
2022-10-15T00:57:06.869Z,1002.38
2022-10-15T00:58:06.909Z,1002.36
2022-10-15T00:59:06.826Z,1002.32
2022-10-15T01:00:06.833Z,1002.33
2022-10-15T01:01:06.938Z,1002.30
2022-10-15T01:02:06.852Z,1002.27
2022-10-15T01:03:06.779Z,1002.25
2022-10-15T01:04:06.775Z,1002.25
2022-10-15T01:05:06.776Z,1002.27
2022-10-15T01:06:06.758Z,1002.20
2022-10-15T01:07:07.817Z,1002.17
2022-10-15T01:08:06.729Z,1002.16
2022-10-15T01:09:06.729Z,1002.16
2022-10-15T01:10:06.700Z,1002.12
2022-10-15T01:11:06.708Z,1002.08
2022-10-15T01:12:06.699Z,1002.10
2022-10-15T01:13:06.715Z,1002.12
2022-10-15T01:14:06.702Z,1002.12
2022-10-15T01:15:06.656Z,1002.13
2022-10-15T01:16:06.697Z,1002.12
2022-10-15T01:17:06.626Z,1002.12
2022-10-15T01:18:06.617Z,1002.08
2022-10-15T01:19:06.640Z,1002.10
2022-10-15T01:20:06.613Z,1002.06
2022-10-15T01:21:06.685Z,1002.07
2022-10-15T01:22:06.597Z,1002.04
2022-10-15T01:23:06.585Z,1002.05
2022-10-15T01:24:06.560Z,1002.03
2022-10-15T01:25:06.647Z,1002.02
2022-10-15T01:26:06.524Z,1001.99
2022-10-15T01:27:06.637Z,1002.01
2022-10-15T01:28:06.513Z,1001.98
2022-10-15T01:29:06.516Z,1001.94
2022-10-15T01:30:06.514Z,1001.91
2022-10-15T01:31:06.486Z,1001.88
2022-10-15T01:32:06.467Z,1001.90
2022-10-15T01:33:06.471Z,1001.89
2022-10-15T01:34:06.484Z,1001.91
2022-10-15T01:35:06.474Z,1001.88
2022-10-15T01:36:06.643Z,1001.87
2022-10-15T01:37:06.413Z,1001.88
2022-10-15T01:38:06.423Z,1001.90
2022-10-15T01:39:06.429Z,1001.86
2022-10-15T01:40:06.378Z,1001.88
2022-10-15T01:41:06.369Z,1001.86
2022-10-15T01:42:06.358Z,1001.81
2022-10-15T01:43:06.354Z,1001.83
2022-10-15T01:44:06.327Z,1001.82
2022-10-15T01:45:06.353Z,1001.83
2022-10-15T01:46:06.348Z,1001.82
2022-10-15T01:47:06.313Z,1001.81
2022-10-15T01:48:06.295Z,1001.79
2022-10-15T01:49:06.286Z,1001.84
2022-10-15T01:50:06.266Z,1001.83
2022-10-15T01:51:06.251Z,1001.81
2022-10-15T01:52:06.262Z,1001.82
2022-10-15T01:53:06.251Z,1001.75
2022-10-15T01:54:06.225Z,1001.78
2022-10-15T01:55:06.232Z,1001.78
2022-10-15T01:56:06.211Z,1001.77
2022-10-15T01:57:06.187Z,1001.78
2022-10-15T01:58:06.209Z,1001.76
2022-10-15T01:59:06.191Z,1001.75
2022-10-15T02:00:06.163Z,1001.71
2022-10-15T02:01:06.206Z,1001.67
2022-10-15T02:02:06.876Z,1001.64
2022-10-15T02:03:06.156Z,1001.63
2022-10-15T02:04:06.115Z,1001.63
2022-10-15T02:05:06.161Z,1001.65
2022-10-15T02:06:06.123Z,1001.67
2022-10-15T02:07:06.120Z,1001.66
2022-10-15T02:08:06.072Z,1001.64
2022-10-15T02:09:06.224Z,1001.61
2022-10-15T02:10:06.259Z,1001.62
2022-10-15T02:11:06.047Z,1001.61
2022-10-15T02:12:06.047Z,1001.59
2022-10-15T02:13:06.019Z,1001.60
2022-10-15T02:14:06.014Z,1001.62
2022-10-15T02:15:06.001Z,1001.62
2022-10-15T02:16:06.198Z,1001.60
2022-10-15T02:17:05.985Z,1001.60
2022-10-15T02:18:05.963Z,1001.60
2022-10-15T02:19:05.956Z,1001.61
2022-10-15T02:20:05.958Z,1001.64
2022-10-15T02:21:05.940Z,1001.62
2022-10-15T02:22:05.932Z,1001.62
2022-10-15T02:23:05.915Z,1001.57
2022-10-15T02:24:05.899Z,1001.58
2022-10-15T02:25:05.903Z,1001.59
2022-10-15T02:26:05.925Z,1001.57
2022-10-15T02:27:05.874Z,1001.57
2022-10-15T02:28:05.851Z,1001.58
2022-10-15T02:29:06.018Z,1001.59
2022-10-15T02:30:05.838Z,1001.55
2022-10-15T02:31:05.972Z,1001.56
2022-10-15T02:32:05.826Z,1001.58
2022-10-15T02:33:05.812Z,1001.57
2022-10-15T02:34:05.815Z,1001.55
2022-10-15T02:35:05.789Z,1001.56
2022-10-15T02:36:05.774Z,1001.56
2022-10-15T02:37:05.817Z,1001.53
2022-10-15T02:38:05.844Z,1001.53
2022-10-15T02:39:05.747Z,1001.51
2022-10-15T02:40:05.747Z,1001.53
2022-10-15T02:41:05.742Z,1001.53
2022-10-15T02:42:05.705Z,1001.51
2022-10-15T02:43:05.701Z,1001.49
2022-10-15T02:44:05.713Z,1001.45
2022-10-15T02:45:05.677Z,1001.41
2022-10-15T02:46:05.666Z,1001.37
2022-10-15T02:47:05.697Z,1001.40
2022-10-15T02:48:05.638Z,1001.41
2022-10-15T02:49:05.640Z,1001.39
2022-10-15T02:50:05.617Z,1001.39
2022-10-15T02:51:05.615Z,1001.41
2022-10-15T02:52:05.609Z,1001.37
2022-10-15T02:53:05.589Z,1001.39
2022-10-15T02:54:05.578Z,1001.41
2022-10-15T02:55:05.574Z,1001.39
2022-10-15T02:56:05.551Z,1001.40
2022-10-15T02:57:05.661Z,1001.41
2022-10-15T02:58:05.539Z,1001.39
2022-10-15T02:59:05.540Z,1001.41
2022-10-15T03:00:05.515Z,1001.39
2022-10-15T03:01:05.678Z,1001.41
2022-10-15T03:02:05.486Z,1001.41
2022-10-15T03:03:05.692Z,1001.42
2022-10-15T03:04:05.471Z,1001.41
2022-10-15T03:05:05.467Z,1001.39
2022-10-15T03:06:05.444Z,1001.40
2022-10-15T03:07:05.433Z,1001.38
2022-10-15T03:08:05.432Z,1001.38
2022-10-15T03:09:05.438Z,1001.35
2022-10-15T03:10:05.403Z,1001.36
2022-10-15T03:11:05.394Z,1001.37
2022-10-15T03:12:05.399Z,1001.37
2022-10-15T03:13:05.392Z,1001.39
2022-10-15T03:14:05.356Z,1001.37
2022-10-15T03:15:05.351Z,1001.40
2022-10-15T03:16:05.333Z,1001.39
2022-10-15T03:17:05.321Z,1001.36
2022-10-15T03:18:05.320Z,1001.38
2022-10-15T03:19:05.298Z,1001.36
2022-10-15T03:20:05.549Z,1001.39
2022-10-15T03:21:05.287Z,1001.38
2022-10-15T03:22:05.270Z,1001.40
2022-10-15T03:23:05.275Z,1001.35
2022-10-15T03:24:05.251Z,1001.33
2022-10-15T03:25:05.239Z,1001.32
2022-10-15T03:26:05.244Z,1001.29
2022-10-15T03:27:05.300Z,1001.26
2022-10-15T03:28:05.233Z,1001.20
2022-10-15T03:29:05.190Z,1001.18
2022-10-15T03:30:05.177Z,1001.21
2022-10-15T03:31:05.251Z,1001.17
2022-10-15T03:32:05.165Z,1001.16
2022-10-15T03:33:05.239Z,1001.16
2022-10-15T03:34:05.137Z,1001.17
2022-10-15T03:35:05.135Z,1001.15
2022-10-15T03:36:05.119Z,1001.14
2022-10-15T03:37:05.109Z,1001.16
2022-10-15T03:38:05.105Z,1001.15
2022-10-15T03:39:05.090Z,1001.14
2022-10-15T03:40:05.156Z,1001.15
2022-10-15T03:41:05.070Z,1001.11
2022-10-15T03:42:05.140Z,1001.16
2022-10-15T03:43:05.056Z,1001.13
2022-10-15T03:44:05.055Z,1001.13
2022-10-15T03:45:05.023Z,1001.10
2022-10-15T03:46:05.203Z,1001.14
2022-10-15T03:47:05.014Z,1001.11
2022-10-15T03:48:05.019Z,1001.12
2022-10-15T03:49:04.995Z,1001.10
2022-10-15T03:50:04.968Z,1001.11
2022-10-15T03:51:04.957Z,1001.17
2022-10-15T03:52:04.935Z,1001.15
2022-10-15T03:53:04.940Z,1001.16
2022-10-15T03:54:04.929Z,1001.15
2022-10-15T03:55:04.907Z,1001.15
2022-10-15T03:56:04.895Z,1001.18
2022-10-15T03:57:04.918Z,1001.19
2022-10-15T03:58:04.887Z,1001.13
2022-10-15T03:59:04.899Z,1001.14
2022-10-15T04:00:04.859Z,1001.12
2022-10-15T04:01:04.871Z,1001.13
2022-10-15T04:02:04.972Z,1001.15
2022-10-15T04:03:04.822Z,1001.15
2022-10-15T04:04:04.813Z,1001.14
2022-10-15T04:05:04.810Z,1001.19
2022-10-15T04:06:04.787Z,1001.18
2022-10-15T04:07:04.780Z,1001.15
2022-10-15T04:08:04.758Z,1001.17
2022-10-15T04:09:04.760Z,1001.15
2022-10-15T04:10:04.764Z,1001.18
2022-10-15T04:11:04.901Z,1001.17
2022-10-15T04:12:04.734Z,1001.16
2022-10-15T04:13:05.012Z,1001.19
2022-10-15T04:14:04.702Z,1001.20
2022-10-15T04:15:04.700Z,1001.19
2022-10-15T04:16:04.673Z,1001.21
2022-10-15T04:17:04.674Z,1001.17
2022-10-15T04:18:04.659Z,1001.18
2022-10-15T04:19:07.347Z,1001.17
2022-10-15T04:20:04.660Z,1001.20
2022-10-15T04:21:04.635Z,1001.19
2022-10-15T04:22:04.833Z,1001.23
2022-10-15T04:23:04.609Z,1001.24
2022-10-15T04:24:04.594Z,1001.20
2022-10-15T04:25:04.594Z,1001.21
2022-10-15T04:26:04.570Z,1001.23
2022-10-15T04:27:04.653Z,1001.23
2022-10-15T04:28:04.551Z,1001.20
2022-10-15T04:29:04.650Z,1001.23
2022-10-15T04:30:04.516Z,1001.24
2022-10-15T04:31:04.525Z,1001.22
2022-10-15T04:32:04.507Z,1001.23
2022-10-15T04:33:04.497Z,1001.27
2022-10-15T04:34:04.663Z,1001.23
2022-10-15T04:35:04.467Z,1001.24
2022-10-15T04:36:04.564Z,1001.24
2022-10-15T04:37:04.447Z,1001.25
2022-10-15T04:38:04.440Z,1001.24
2022-10-15T04:39:04.436Z,1001.25
2022-10-15T04:40:04.407Z,1001.25
2022-10-15T04:41:04.443Z,1001.29
2022-10-15T04:42:04.389Z,1001.29
2022-10-15T04:43:04.385Z,1001.28
2022-10-15T04:44:04.364Z,1001.27
2022-10-15T04:45:04.349Z,1001.29
2022-10-15T04:46:04.375Z,1001.32
2022-10-15T04:47:04.336Z,1001.27
2022-10-15T04:48:04.316Z,1001.28
2022-10-15T04:49:04.316Z,1001.26
2022-10-15T04:50:04.301Z,1001.28
2022-10-15T04:51:04.285Z,1001.24
2022-10-15T04:52:04.281Z,1001.28
2022-10-15T04:53:04.267Z,1001.25
2022-10-15T04:54:04.258Z,1001.30
2022-10-15T04:55:04.252Z,1001.29
2022-10-15T04:56:04.260Z,1001.29
2022-10-15T04:57:04.237Z,1001.30
2022-10-15T04:58:04.217Z,1001.30
2022-10-15T04:59:04.218Z,1001.31
2022-10-15T05:00:04.193Z,1001.31
2022-10-15T05:01:04.183Z,1001.30
2022-10-15T05:02:04.469Z,1001.31
2022-10-15T05:03:04.162Z,1001.33
2022-10-15T05:04:04.150Z,1001.30
2022-10-15T05:05:04.152Z,1001.33
2022-10-15T05:06:04.122Z,1001.33
2022-10-15T05:07:04.108Z,1001.29
2022-10-15T05:08:04.102Z,1001.28
2022-10-15T05:09:04.100Z,1001.27
2022-10-15T05:10:04.076Z,1001.26
2022-10-15T05:11:04.081Z,1001.27
2022-10-15T05:12:04.058Z,1001.27
2022-10-15T05:13:04.059Z,1001.28
2022-10-15T05:14:04.028Z,1001.25
2022-10-15T05:15:04.021Z,1001.23
2022-10-15T05:16:04.012Z,1001.27
2022-10-15T05:17:03.995Z,1001.28
2022-10-15T05:18:03.995Z,1001.28
2022-10-15T05:19:03.969Z,1001.25
2022-10-15T05:20:03.969Z,1001.28
2022-10-15T05:21:03.956Z,1001.26
2022-10-15T05:22:03.959Z,1001.27
2022-10-15T05:23:03.941Z,1001.27
2022-10-15T05:24:03.924Z,1001.28
2022-10-15T05:25:03.970Z,1001.30
2022-10-15T05:26:03.900Z,1001.26
2022-10-15T05:27:03.886Z,1001.29
2022-10-15T05:28:03.925Z,1001.26
2022-10-15T05:29:03.923Z,1001.30
2022-10-15T05:30:04.820Z,1001.32
2022-10-15T05:31:03.845Z,1001.29
2022-10-15T05:32:03.954Z,1001.29
2022-10-15T05:33:03.841Z,1001.30
2022-10-15T05:34:03.807Z,1001.31
2022-10-15T05:35:03.867Z,1001.32
2022-10-15T05:36:03.813Z,1001.32
2022-10-15T05:37:03.862Z,1001.34
2022-10-15T05:38:03.790Z,1001.38
2022-10-15T05:39:03.755Z,1001.35
2022-10-15T05:40:03.822Z,1001.36
2022-10-15T05:41:03.725Z,1001.35
2022-10-15T05:42:03.731Z,1001.39
2022-10-15T05:43:03.712Z,1001.41
2022-10-15T05:44:03.709Z,1001.43
2022-10-15T05:45:03.684Z,1001.46
2022-10-15T05:46:03.682Z,1001.47
2022-10-15T05:47:03.663Z,1001.46
2022-10-15T05:48:03.659Z,1001.48
2022-10-15T05:49:03.650Z,1001.50
2022-10-15T05:50:07.000Z,1001.50
2022-10-15T05:51:03.621Z,1001.53
2022-10-15T05:52:03.615Z,1001.51
2022-10-15T05:53:03.709Z,1001.51
2022-10-15T05:54:03.597Z,1001.48
2022-10-15T05:55:03.569Z,1001.47
2022-10-15T05:56:03.569Z,1001.47
2022-10-15T05:57:03.561Z,1001.51
2022-10-15T05:58:04.553Z,1001.50
2022-10-15T05:59:03.544Z,1001.52
2022-10-15T06:00:03.541Z,1001.53
2022-10-15T06:01:03.506Z,1001.54
2022-10-15T06:02:03.537Z,1001.55
2022-10-15T06:03:03.500Z,1001.58
2022-10-15T06:04:03.517Z,1001.61
2022-10-15T06:05:03.460Z,1001.61
2022-10-15T06:06:03.452Z,1001.64
2022-10-15T06:07:03.437Z,1001.63
2022-10-15T06:08:03.442Z,1001.63
2022-10-15T06:09:03.460Z,1001.69
2022-10-15T06:10:03.412Z,1001.70
2022-10-15T06:11:06.749Z,1001.67
2022-10-15T06:12:03.397Z,1001.67
2022-10-15T06:13:03.378Z,1001.69
2022-10-15T06:14:03.988Z,1001.66
2022-10-15T06:15:03.377Z,1001.67
2022-10-15T06:16:03.355Z,1001.69
2022-10-15T06:17:03.538Z,1001.70
2022-10-15T06:18:03.323Z,1001.72
2022-10-15T06:19:03.533Z,1001.72
2022-10-15T06:20:03.313Z,1001.74
2022-10-15T06:21:03.302Z,1001.75
2022-10-15T06:22:03.286Z,1001.75
2022-10-15T06:23:03.272Z,1001.75
2022-10-15T06:24:06.293Z,1001.75
2022-10-15T06:25:03.263Z,1001.78
2022-10-15T06:26:03.243Z,1001.79
2022-10-15T06:27:03.448Z,1001.75
2022-10-15T06:28:03.227Z,1001.76
2022-10-15T06:29:03.264Z,1001.80
2022-10-15T06:30:03.215Z,1001.77
2022-10-15T06:31:03.177Z,1001.74
2022-10-15T06:32:03.364Z,1001.74
2022-10-15T06:33:03.195Z,1001.75
2022-10-15T06:34:03.162Z,1001.71
2022-10-15T06:35:03.145Z,1001.69
2022-10-15T06:36:03.132Z,1001.71
2022-10-15T06:37:03.118Z,1001.72
2022-10-15T06:38:03.401Z,1001.73
2022-10-15T06:39:03.096Z,1001.75
2022-10-15T06:40:03.114Z,1001.75
2022-10-15T06:41:03.068Z,1001.79
2022-10-15T06:42:03.083Z,1001.80
2022-10-15T06:43:03.088Z,1001.78
2022-10-15T06:44:03.048Z,1001.80
2022-10-15T06:45:03.084Z,1001.83
2022-10-15T06:46:03.032Z,1001.88
2022-10-15T06:47:03.009Z,1001.88
2022-10-15T06:48:03.001Z,1001.89
2022-10-15T06:49:02.983Z,1001.94
2022-10-15T06:50:02.996Z,1001.94
2022-10-15T06:51:02.977Z,1001.93
2022-10-15T06:52:03.785Z,1001.94
2022-10-15T06:53:02.950Z,1001.99
2022-10-15T06:54:02.964Z,1001.96
2022-10-15T06:55:02.943Z,1001.99
2022-10-15T06:56:02.913Z,1002.01
2022-10-15T06:57:02.895Z,1001.98
2022-10-15T06:58:02.897Z,1002.02
2022-10-15T06:59:02.882Z,1002.01
2022-10-15T07:00:02.879Z,1002.04
2022-10-15T07:01:02.865Z,1002.07
2022-10-15T07:02:02.846Z,1002.08
2022-10-15T07:03:02.929Z,1002.08
2022-10-15T07:04:02.823Z,1002.13
2022-10-15T07:05:02.844Z,1002.15
2022-10-15T07:06:02.811Z,1002.20
2022-10-15T07:07:02.788Z,1002.24
2022-10-15T07:08:02.779Z,1002.25
2022-10-15T07:09:02.771Z,1002.23
2022-10-15T07:10:02.950Z,1002.28
2022-10-15T07:11:02.769Z,1002.32
2022-10-15T07:12:02.748Z,1002.30
2022-10-15T07:13:02.767Z,1002.34
2022-10-15T07:14:02.728Z,1002.34
2022-10-15T07:15:02.705Z,1002.34
2022-10-15T07:16:02.710Z,1002.38
2022-10-15T07:17:02.683Z,1002.40
2022-10-15T07:18:02.751Z,1002.41
2022-10-15T07:19:02.668Z,1002.39
2022-10-15T07:20:02.685Z,1002.40
2022-10-15T07:21:02.686Z,1002.41
2022-10-15T07:22:02.630Z,1002.37
2022-10-15T07:23:02.703Z,1002.38
2022-10-15T07:24:02.635Z,1002.36
2022-10-15T07:25:02.595Z,1002.34
2022-10-15T07:26:02.603Z,1002.35
2022-10-15T07:27:08.357Z,1002.33
2022-10-15T07:28:02.574Z,1002.28
2022-10-15T07:29:02.622Z,1002.27
2022-10-15T07:30:02.556Z,1002.26
2022-10-15T07:31:02.592Z,1002.25
2022-10-15T07:32:02.531Z,1002.20
2022-10-15T07:33:02.538Z,1002.20
2022-10-15T07:34:02.513Z,1002.19
2022-10-15T07:35:02.520Z,1002.20
2022-10-15T07:36:02.566Z,1002.19
2022-10-15T07:37:02.472Z,1002.18
2022-10-15T07:38:02.455Z,1002.21
2022-10-15T07:39:02.446Z,1002.22
2022-10-15T07:40:02.450Z,1002.26
2022-10-15T07:41:02.515Z,1002.19
2022-10-15T07:42:02.462Z,1002.25
2022-10-15T07:43:02.408Z,1002.22
2022-10-15T07:44:02.530Z,1002.25
2022-10-15T07:45:02.381Z,1002.24
2022-10-15T07:46:02.618Z,1002.25
2022-10-15T07:47:02.385Z,1002.25
2022-10-15T07:48:02.363Z,1002.25
2022-10-15T07:49:02.513Z,1002.25
2022-10-15T07:50:02.334Z,1002.27
2022-10-15T07:51:02.416Z,1002.27
2022-10-15T07:52:02.309Z,1002.28
2022-10-15T07:53:02.303Z,1002.27
2022-10-15T07:54:02.279Z,1002.26
2022-10-15T07:55:02.269Z,1002.28
2022-10-15T07:56:02.272Z,1002.21
2022-10-15T07:57:02.259Z,1002.26
2022-10-15T07:58:02.236Z,1002.22
2022-10-15T07:59:02.212Z,1002.25
2022-10-15T08:00:02.239Z,1002.25
2022-10-15T08:01:02.205Z,1002.30
2022-10-15T08:02:02.203Z,1002.29
2022-10-15T08:03:02.185Z,1002.28
2022-10-15T08:04:02.169Z,1002.26
2022-10-15T08:05:02.162Z,1002.22
2022-10-15T08:06:02.151Z,1002.28
2022-10-15T08:07:02.188Z,1002.24
2022-10-15T08:08:02.125Z,1002.23
2022-10-15T08:09:02.107Z,1002.22
2022-10-15T08:10:02.113Z,1002.22
2022-10-15T08:11:02.091Z,1002.21
2022-10-15T08:12:02.092Z,1002.24
2022-10-15T08:13:02.060Z,1002.27
2022-10-15T08:14:02.055Z,1002.30
2022-10-15T08:15:02.046Z,1002.32
2022-10-15T08:16:02.037Z,1002.32
2022-10-15T08:17:02.585Z,1002.37
2022-10-15T08:18:02.052Z,1002.36
2022-10-15T08:19:02.015Z,1002.37
2022-10-15T08:20:02.001Z,1002.30
2022-10-15T08:21:01.980Z,1002.32
2022-10-15T08:22:02.017Z,1002.30
2022-10-15T08:23:01.969Z,1002.34
2022-10-15T08:24:01.954Z,1002.33
2022-10-15T08:25:01.958Z,1002.30
2022-10-15T08:26:01.941Z,1002.35
2022-10-15T08:27:01.928Z,1002.35
2022-10-15T08:28:01.942Z,1002.33
2022-10-15T08:29:01.940Z,1002.34
2022-10-15T08:30:02.041Z,1002.34
2022-10-15T08:31:05.204Z,1002.34
2022-10-15T08:32:01.877Z,1002.37
2022-10-15T08:33:01.850Z,1002.35
2022-10-15T08:34:01.835Z,1002.37
2022-10-15T08:35:01.826Z,1002.36
2022-10-15T08:36:01.829Z,1002.37
2022-10-15T08:37:01.860Z,1002.41
2022-10-15T08:38:01.790Z,1002.42
2022-10-15T08:39:02.599Z,1002.37
2022-10-15T08:40:01.782Z,1002.38
2022-10-15T08:41:01.757Z,1002.38
2022-10-15T08:42:01.825Z,1002.39
2022-10-15T08:43:01.740Z,1002.38
2022-10-15T08:44:01.756Z,1002.42
2022-10-15T08:45:01.734Z,1002.43
2022-10-15T08:46:01.715Z,1002.45
2022-10-15T08:47:01.735Z,1002.47
2022-10-15T08:48:01.698Z,1002.46
2022-10-15T08:49:01.663Z,1002.46
2022-10-15T08:50:01.655Z,1002.47
2022-10-15T08:51:01.655Z,1002.46
2022-10-15T08:52:01.634Z,1002.46
2022-10-15T08:53:01.633Z,1002.45
2022-10-15T08:54:01.621Z,1002.49
2022-10-15T08:55:01.604Z,1002.45
2022-10-15T08:56:01.600Z,1002.51
2022-10-15T08:57:01.580Z,1002.50
2022-10-15T08:58:01.592Z,1002.57
2022-10-15T08:59:01.552Z,1002.55
2022-10-15T09:00:01.605Z,1002.59
2022-10-15T09:01:01.537Z,1002.60
2022-10-15T09:02:01.549Z,1002.57
2022-10-15T09:03:01.713Z,1002.56
2022-10-15T09:04:01.517Z,1002.56
2022-10-15T09:05:01.490Z,1002.62
2022-10-15T09:06:01.486Z,1002.54
2022-10-15T09:07:01.474Z,1002.56
2022-10-15T09:08:01.474Z,1002.59
2022-10-15T09:09:01.459Z,1002.57
2022-10-15T09:10:01.444Z,1002.56
2022-10-15T09:11:01.423Z,1002.59
2022-10-15T09:12:01.425Z,1002.62
2022-10-15T09:13:01.409Z,1002.61
2022-10-15T09:14:01.416Z,1002.61
2022-10-15T09:15:01.394Z,1002.63
2022-10-15T09:16:01.574Z,1002.61
2022-10-15T09:17:01.366Z,1002.58
2022-10-15T09:18:01.364Z,1002.57
2022-10-15T09:19:01.423Z,1002.61
2022-10-15T09:20:01.370Z,1002.64
2022-10-15T09:21:01.315Z,1002.62
2022-10-15T09:22:01.307Z,1002.64
2022-10-15T09:23:01.298Z,1002.63
2022-10-15T09:24:01.305Z,1002.61
2022-10-15T09:25:01.272Z,1002.66
2022-10-15T09:26:01.258Z,1002.64
2022-10-15T09:27:01.260Z,1002.63
2022-10-15T09:28:01.239Z,1002.62
2022-10-15T09:29:01.324Z,1002.60
2022-10-15T09:30:01.524Z,1002.60
2022-10-15T09:31:01.214Z,1002.61
2022-10-15T09:32:01.320Z,1002.58
2022-10-15T09:33:01.183Z,1002.61
2022-10-15T09:34:01.179Z,1002.60
2022-10-15T09:35:01.181Z,1002.60
2022-10-15T09:36:01.143Z,1002.62
2022-10-15T09:37:01.142Z,1002.65
2022-10-15T09:38:05.673Z,1002.67
2022-10-15T09:39:01.114Z,1002.63
2022-10-15T09:40:01.140Z,1002.60
2022-10-15T09:41:01.180Z,1002.62
2022-10-15T09:42:01.090Z,1002.64
2022-10-15T09:43:01.297Z,1002.61
2022-10-15T09:44:01.085Z,1002.60
2022-10-15T09:45:01.051Z,1002.61
2022-10-15T09:46:01.105Z,1002.66
2022-10-15T09:47:01.031Z,1002.61
2022-10-15T09:48:01.024Z,1002.66
2022-10-15T09:49:01.010Z,1002.64
2022-10-15T09:50:00.991Z,1002.66
2022-10-15T09:51:01.001Z,1002.65
2022-10-15T09:52:00.978Z,1002.68
2022-10-15T09:53:00.968Z,1002.70
2022-10-15T09:54:00.957Z,1002.67
2022-10-15T09:55:00.949Z,1002.67
2022-10-15T09:56:01.006Z,1002.66
2022-10-15T09:57:00.934Z,1002.67
2022-10-15T09:58:00.908Z,1002.67
2022-10-15T09:59:01.970Z,1002.69
2022-10-15T10:00:00.920Z,1002.68
2022-10-15T10:01:00.895Z,1002.71
2022-10-15T10:02:00.956Z,1002.72
2022-10-15T10:03:00.867Z,1002.73
2022-10-15T10:04:00.845Z,1002.71
2022-10-15T10:05:01.606Z,1002.74
2022-10-15T10:06:00.818Z,1002.71
2022-10-15T10:07:00.823Z,1002.73
2022-10-15T10:08:00.796Z,1002.77
2022-10-15T10:09:00.802Z,1002.75
2022-10-15T10:10:00.785Z,1002.76
2022-10-15T10:11:00.771Z,1002.76
2022-10-15T10:12:00.797Z,1002.81
2022-10-15T10:13:00.755Z,1002.80
2022-10-15T10:14:00.742Z,1002.82
2022-10-15T10:15:00.729Z,1002.82
2022-10-15T10:16:01.085Z,1002.84
2022-10-15T10:17:00.702Z,1002.80
2022-10-15T10:18:00.710Z,1002.81
2022-10-15T10:19:00.684Z,1002.85
2022-10-15T10:20:00.699Z,1002.86
2022-10-15T10:21:00.800Z,1002.86
2022-10-15T10:22:00.649Z,1002.83
2022-10-15T10:23:00.656Z,1002.83
2022-10-15T10:24:00.750Z,1002.81
2022-10-15T10:25:00.619Z,1002.83
2022-10-15T10:26:00.603Z,1002.85
2022-10-15T10:27:00.627Z,1002.83
2022-10-15T10:28:00.609Z,1002.85
2022-10-15T10:29:09.840Z,1002.83
2022-10-15T10:30:00.577Z,1002.82
2022-10-15T10:31:00.554Z,1002.82
2022-10-15T10:32:00.663Z,1002.83
2022-10-15T10:33:00.537Z,1002.78
2022-10-15T10:34:00.531Z,1002.87
2022-10-15T10:35:00.500Z,1002.84
2022-10-15T10:36:00.558Z,1002.82
2022-10-15T10:37:00.492Z,1002.88
2022-10-15T10:38:00.474Z,1002.83
2022-10-15T10:39:00.486Z,1002.85
2022-10-15T10:40:00.453Z,1002.81
2022-10-15T10:41:00.508Z,1002.79
2022-10-15T10:42:00.439Z,1002.82
2022-10-15T10:43:00.417Z,1002.83
2022-10-15T10:44:00.437Z,1002.86
2022-10-15T10:45:00.424Z,1002.86
2022-10-15T10:46:00.391Z,1002.86
2022-10-15T10:47:00.373Z,1002.87
2022-10-15T10:48:00.391Z,1002.87
2022-10-15T10:49:00.380Z,1002.89
2022-10-15T10:50:00.370Z,1002.86
2022-10-15T10:51:00.384Z,1002.91
2022-10-15T10:52:00.407Z,1002.93
2022-10-15T10:53:00.305Z,1002.93
2022-10-15T10:54:00.298Z,1002.95
2022-10-15T10:55:00.317Z,1002.91
2022-10-15T10:56:00.276Z,1002.96
2022-10-15T10:57:00.262Z,1002.97
2022-10-15T10:58:00.265Z,1002.97
2022-10-15T10:59:00.236Z,1002.99
2022-10-15T11:00:00.237Z,1002.97
2022-10-15T11:01:00.294Z,1002.99
2022-10-15T11:02:00.213Z,1002.95
2022-10-15T11:03:00.217Z,1002.90
2022-10-15T11:04:00.225Z,1002.95
2022-10-15T11:05:00.170Z,1002.93
2022-10-15T11:06:00.255Z,1002.92
2022-10-15T11:07:00.147Z,1002.90
2022-10-15T11:08:00.148Z,1002.89
2022-10-15T11:09:00.143Z,1002.90
2022-10-15T11:10:00.125Z,1002.90
2022-10-15T11:11:00.128Z,1002.89
2022-10-15T11:12:00.104Z,1002.93
2022-10-15T11:13:00.108Z,1002.92
2022-10-15T11:14:00.089Z,1002.88
2022-10-15T11:15:00.070Z,1002.90
2022-10-15T11:16:00.083Z,1002.90
2022-10-15T11:17:00.038Z,1002.95
2022-10-15T11:18:00.038Z,1002.94
2022-10-15T11:19:03.560Z,1002.95
2022-10-15T11:20:21.729Z,1002.95
2022-10-15T11:21:03.082Z,1002.91
2022-10-15T11:22:00.006Z,1002.94
2022-10-15T11:22:59.973Z,1002.94
2022-10-15T11:23:59.975Z,1002.87
2022-10-15T11:25:06.698Z,1002.90
2022-10-15T11:25:59.955Z,1002.92
2022-10-15T11:27:10.415Z,1002.85
2022-10-15T11:27:59.971Z,1002.85
2022-10-15T11:29:00.015Z,1002.82
2022-10-15T11:29:59.934Z,1002.79
2022-10-15T11:30:59.895Z,1002.82
2022-10-15T11:32:02.603Z,1002.80
2022-10-15T11:33:08.825Z,1002.78
2022-10-15T11:33:59.857Z,1002.74
2022-10-15T11:34:59.849Z,1002.72
2022-10-15T11:35:59.841Z,1002.69
2022-10-15T11:36:59.817Z,1002.70
2022-10-15T11:37:59.814Z,1002.79
2022-10-15T11:38:59.846Z,1002.69
2022-10-15T11:39:59.807Z,1002.73
2022-10-15T11:40:59.780Z,1002.71
2022-10-15T11:41:59.775Z,1002.68
2022-10-15T11:42:59.754Z,1002.60
2022-10-15T11:43:59.767Z,1002.64
2022-10-15T11:44:59.733Z,1002.60
2022-10-15T11:45:59.735Z,1002.63
2022-10-15T11:46:59.846Z,1002.65
2022-10-15T11:47:59.807Z,1002.66
2022-10-15T11:48:59.693Z,1002.66
2022-10-15T11:49:59.688Z,1002.65
2022-10-15T11:50:59.663Z,1002.69
2022-10-15T11:51:59.664Z,1002.70
2022-10-15T11:52:59.815Z,1002.72
2022-10-15T11:53:59.644Z,1002.68
2022-10-15T11:54:59.650Z,1002.74
2022-10-15T11:55:59.617Z,1002.74
2022-10-15T11:56:59.606Z,1002.76
2022-10-15T11:57:59.599Z,1002.73
2022-10-15T11:59:59.586Z,1002.75
2022-10-15T12:00:59.551Z,1002.74
2022-10-15T12:01:59.550Z,1002.70
2022-10-15T12:02:59.578Z,1002.70
2022-10-15T12:03:59.568Z,1002.66
2022-10-15T12:04:59.532Z,1002.65
2022-10-15T12:05:59.505Z,1002.67